sensor_id;sensor_type;location;lat;lon;timestamp;temperature;humidity
9425;DHT22;17139;52.140;11.636;2023-07-13T00:01:52;18.00;44.10
9425;DHT22;17139;52.140;11.636;2023-07-13T00:04:20;17.90;44.10
9425;DHT22;17139;52.140;11.636;2023-07-13T00:06:50;17.80;44.20
9425;DHT22;17139;52.140;11.636;2023-07-13T00:09:18;17.70;44.20
9425;DHT22;17139;52.140;11.636;2023-07-13T00:11:45;17.60;44.20
9425;DHT22;17139;52.140;11.636;2023-07-13T00:14:14;17.60;44.20
9425;DHT22;17139;52.140;11.636;2023-07-13T00:16:42;17.50;44.20
9425;DHT22;17139;52.140;11.636;2023-07-13T00:19:09;18.10;46.10
9425;DHT22;17139;52.140;11.636;2023-07-13T00:21:37;17.90;44.50
9425;DHT22;17139;52.140;11.636;2023-07-13T00:24:06;17.70;44.40
9425;DHT22;17139;52.140;11.636;2023-07-13T00:26:33;18.50;46.40
9425;DHT22;17139;52.140;11.636;2023-07-13T00:29:00;18.10;44.70
9425;DHT22;17139;52.140;11.636;2023-07-13T00:31:27;17.90;44.70
9425;DHT22;17139;52.140;11.636;2023-07-13T00:33:54;17.70;44.60
9425;DHT22;17139;52.140;11.636;2023-07-13T00:36:21;17.50;44.70
9425;DHT22;17139;52.140;11.636;2023-07-13T00:38:48;17.50;44.90
9425;DHT22;17139;52.140;11.636;2023-07-13T00:41:17;17.40;44.90
9425;DHT22;17139;52.140;11.636;2023-07-13T00:43:44;17.40;45.00
9425;DHT22;17139;52.140;11.636;2023-07-13T00:46:19;17.30;44.80
9425;DHT22;17139;52.140;11.636;2023-07-13T00:48:50;17.30;45.00
9425;DHT22;17139;52.140;11.636;2023-07-13T00:51:21;17.20;44.90
9425;DHT22;17139;52.140;11.636;2023-07-13T00:53:49;17.20;45.00
9425;DHT22;17139;52.140;11.636;2023-07-13T00:56:18;17.20;44.90
9425;DHT22;17139;52.140;11.636;2023-07-13T00:58:46;17.20;45.00
9425;DHT22;17139;52.140;11.636;2023-07-13T01:01:13;17.20;44.90
9425;DHT22;17139;52.140;11.636;2023-07-13T01:03:40;17.10;45.00
9425;DHT22;17139;52.140;11.636;2023-07-13T01:06:07;17.10;44.90
9425;DHT22;17139;52.140;11.636;2023-07-13T01:08:35;17.10;44.90
9425;DHT22;17139;52.140;11.636;2023-07-13T01:11:01;17.00;44.80
9425;DHT22;17139;52.140;11.636;2023-07-13T01:13:30;17.00;44.80
9425;DHT22;17139;52.140;11.636;2023-07-13T01:15:58;17.70;46.80
9425;DHT22;17139;52.140;11.636;2023-07-13T01:18:28;17.50;45.10
9425;DHT22;17139;52.140;11.636;2023-07-13T01:20:59;17.30;45.00
9425;DHT22;17139;52.140;11.636;2023-07-13T01:23:27;17.20;45.00
9425;DHT22;17139;52.140;11.636;2023-07-13T01:25:55;17.10;45.00
9425;DHT22;17139;52.140;11.636;2023-07-13T01:28:23;17.10;45.00
9425;DHT22;17139;52.140;11.636;2023-07-13T01:30:53;17.10;45.10
9425;DHT22;17139;52.140;11.636;2023-07-13T01:33:20;17.00;45.00
9425;DHT22;17139;52.140;11.636;2023-07-13T01:35:47;17.80;47.20
9425;DHT22;17139;52.140;11.636;2023-07-13T01:38:18;17.50;45.40
9425;DHT22;17139;52.140;11.636;2023-07-13T01:40:45;17.80;47.00
9425;DHT22;17139;52.140;11.636;2023-07-13T01:43:13;17.40;45.60
9425;DHT22;17139;52.140;11.636;2023-07-13T01:45:40;17.20;45.60
9425;DHT22;17139;52.140;11.636;2023-07-13T01:48:07;17.00;45.60
9425;DHT22;17139;52.140;11.636;2023-07-13T01:50:34;16.90;45.80
9425;DHT22;17139;52.140;11.636;2023-07-13T01:53:01;16.80;46.00
9425;DHT22;17139;52.140;11.636;2023-07-13T01:55:31;16.70;46.00
9425;DHT22;17139;52.140;11.636;2023-07-13T01:57:58;16.70;46.00
9425;DHT22;17139;52.140;11.636;2023-07-13T02:00:25;17.40;47.90
9425;DHT22;17139;52.140;11.636;2023-07-13T02:02:52;17.20;46.20
9425;DHT22;17139;52.140;11.636;2023-07-13T02:05:19;17.30;47.40
9425;DHT22;17139;52.140;11.636;2023-07-13T02:07:47;17.20;46.10
9425;DHT22;17139;52.140;11.636;2023-07-13T02:10:15;17.00;46.00
9425;DHT22;17139;52.140;11.636;2023-07-13T02:12:44;16.90;46.00
9425;DHT22;17139;52.140;11.636;2023-07-13T02:15:11;16.80;46.10
9425;DHT22;17139;52.140;11.636;2023-07-13T02:17:38;16.70;46.10
9425;DHT22;17139;52.140;11.636;2023-07-13T02:20:06;16.60;46.00
9425;DHT22;17139;52.140;11.636;2023-07-13T02:22:33;16.60;46.10
9425;DHT22;17139;52.140;11.636;2023-07-13T02:25:01;16.90;47.80
9425;DHT22;17139;52.140;11.636;2023-07-13T02:27:28;16.80;46.40
9425;DHT22;17139;52.140;11.636;2023-07-13T02:29:56;16.70;46.40
9425;DHT22;17139;52.140;11.636;2023-07-13T02:32:23;16.60;46.50
9425;DHT22;17139;52.140;11.636;2023-07-13T02:34:52;16.50;46.40
9425;DHT22;17139;52.140;11.636;2023-07-13T02:37:19;16.40;46.30
9425;DHT22;17139;52.140;11.636;2023-07-13T02:39:47;16.40;46.30
9425;DHT22;17139;52.140;11.636;2023-07-13T02:42:14;16.30;46.30
9425;DHT22;17139;52.140;11.636;2023-07-13T02:44:41;16.30;46.40
9425;DHT22;17139;52.140;11.636;2023-07-13T02:47:10;16.20;46.40
9425;DHT22;17139;52.140;11.636;2023-07-13T02:49:37;16.20;46.50
9425;DHT22;17139;52.140;11.636;2023-07-13T02:52:04;16.20;46.40
9425;DHT22;17139;52.140;11.636;2023-07-13T02:54:32;16.20;46.50
9425;DHT22;17139;52.140;11.636;2023-07-13T02:56:59;16.70;48.30
9425;DHT22;17139;52.140;11.636;2023-07-13T02:59:26;16.50;46.60
9425;DHT22;17139;52.140;11.636;2023-07-13T03:01:53;16.40;46.70
9425;DHT22;17139;52.140;11.636;2023-07-13T03:04:21;16.20;46.60
9425;DHT22;17139;52.140;11.636;2023-07-13T03:06:48;16.10;46.70
9425;DHT22;17139;52.140;11.636;2023-07-13T03:09:15;16.00;46.80
9425;DHT22;17139;52.140;11.636;2023-07-13T03:11:42;16.00;46.80
9425;DHT22;17139;52.140;11.636;2023-07-13T03:14:09;15.90;46.70
9425;DHT22;17139;52.140;11.636;2023-07-13T03:16:36;16.50;48.90
9425;DHT22;17139;52.140;11.636;2023-07-13T03:19:03;16.40;47.10
9425;DHT22;17139;52.140;11.636;2023-07-13T03:21:32;16.60;48.70
9425;DHT22;17139;52.140;11.636;2023-07-13T03:23:58;16.40;47.20
9425;DHT22;17139;52.140;11.636;2023-07-13T03:26:25;16.20;47.10
9425;DHT22;17139;52.140;11.636;2023-07-13T03:28:52;16.10;47.20
9425;DHT22;17139;52.140;11.636;2023-07-13T03:31:22;16.10;47.20
9425;DHT22;17139;52.140;11.636;2023-07-13T03:33:49;16.00;47.20
9425;DHT22;17139;52.140;11.636;2023-07-13T03:36:18;16.00;47.20
9425;DHT22;17139;52.140;11.636;2023-07-13T03:38:47;15.90;47.10
9425;DHT22;17139;52.140;11.636;2023-07-13T03:41:14;16.50;49.10
9425;DHT22;17139;52.140;11.636;2023-07-13T03:43:42;16.30;47.20
9425;DHT22;17139;52.140;11.636;2023-07-13T03:46:09;16.30;47.90
9425;DHT22;17139;52.140;11.636;2023-07-13T03:48:36;16.20;47.20
9425;DHT22;17139;52.140;11.636;2023-07-13T03:51:05;16.10;47.20
9425;DHT22;17139;52.140;11.636;2023-07-13T03:53:32;16.10;47.20
9425;DHT22;17139;52.140;11.636;2023-07-13T03:56:00;16.00;47.20
9425;DHT22;17139;52.140;11.636;2023-07-13T03:58:31;16.10;47.30
9425;DHT22;17139;52.140;11.636;2023-07-13T04:00:59;16.10;47.30
9425;DHT22;17139;52.140;11.636;2023-07-13T04:03:27;16.10;47.10
9425;DHT22;17139;52.140;11.636;2023-07-13T04:05:55;16.20;47.70
9425;DHT22;17139;52.140;11.636;2023-07-13T04:08:26;16.20;47.20
9425;DHT22;17139;52.140;11.636;2023-07-13T04:10:53;16.20;47.10
9425;DHT22;17139;52.140;11.636;2023-07-13T04:13:22;16.90;49.30
9425;DHT22;17139;52.140;11.636;2023-07-13T04:15:49;16.80;47.50
9425;DHT22;17139;52.140;11.636;2023-07-13T04:18:17;16.70;47.20
9425;DHT22;17139;52.140;11.636;2023-07-13T04:20:45;16.70;47.20
9425;DHT22;17139;52.140;11.636;2023-07-13T04:23:13;16.80;47.20
9425;DHT22;17139;52.140;11.636;2023-07-13T04:25:43;16.90;47.10
9425;DHT22;17139;52.140;11.636;2023-07-13T04:28:10;17.00;47.20
9425;DHT22;17139;52.140;11.636;2023-07-13T04:30:39;17.10;46.90
9425;DHT22;17139;52.140;11.636;2023-07-13T04:33:05;17.70;48.50
9425;DHT22;17139;52.140;11.636;2023-07-13T04:35:34;17.70;47.00
9425;DHT22;17139;52.140;11.636;2023-07-13T04:38:01;17.70;46.80
9425;DHT22;17139;52.140;11.636;2023-07-13T04:40:28;18.60;48.00
9425;DHT22;17139;52.140;11.636;2023-07-13T04:42:56;18.50;47.10
9425;DHT22;17139;52.140;11.636;2023-07-13T04:45:24;18.40;46.70
9425;DHT22;17139;52.140;11.636;2023-07-13T04:47:53;18.30;46.60
9425;DHT22;17139;52.140;11.636;2023-07-13T04:50:20;18.30;46.60
9425;DHT22;17139;52.140;11.636;2023-07-13T04:52:49;18.30;46.70
9425;DHT22;17139;52.140;11.636;2023-07-13T04:55:16;18.40;46.70
9425;DHT22;17139;52.140;11.636;2023-07-13T04:57:43;18.40;46.70
9425;DHT22;17139;52.140;11.636;2023-07-13T05:00:11;18.50;46.60
9425;DHT22;17139;52.140;11.636;2023-07-13T05:02:39;18.50;46.50
9425;DHT22;17139;52.140;11.636;2023-07-13T05:05:08;19.40;47.50
9425;DHT22;17139;52.140;11.636;2023-07-13T05:07:35;19.10;46.40
9425;DHT22;17139;52.140;11.636;2023-07-13T05:10:02;18.80;46.40
9425;DHT22;17139;52.140;11.636;2023-07-13T05:12:30;18.70;46.40
9425;DHT22;17139;52.140;11.636;2023-07-13T05:14:57;18.70;46.50
9425;DHT22;17139;52.140;11.636;2023-07-13T05:17:24;18.70;46.60
9425;DHT22;17139;52.140;11.636;2023-07-13T05:19:51;18.70;46.50
9425;DHT22;17139;52.140;11.636;2023-07-13T05:22:19;18.70;46.50
9425;DHT22;17139;52.140;11.636;2023-07-13T05:24:46;19.70;46.80
9425;DHT22;17139;52.140;11.636;2023-07-13T05:27:13;19.50;46.10
9425;DHT22;17139;52.140;11.636;2023-07-13T05:29:40;19.60;46.40
9425;DHT22;17139;52.140;11.636;2023-07-13T05:32:07;19.50;46.10
9425;DHT22;17139;52.140;11.636;2023-07-13T05:34:34;19.50;46.10
9425;DHT22;17139;52.140;11.636;2023-07-13T05:37:01;19.50;46.10
9425;DHT22;17139;52.140;11.636;2023-07-13T05:39:30;19.60;46.10
9425;DHT22;17139;52.140;11.636;2023-07-13T05:41:57;19.70;46.30
9425;DHT22;17139;52.140;11.636;2023-07-13T05:44:24;19.80;46.20
9425;DHT22;17139;52.140;11.636;2023-07-13T05:46:51;19.80;46.10
9425;DHT22;17139;52.140;11.636;2023-07-13T05:49:18;19.80;46.20
9425;DHT22;17139;52.140;11.636;2023-07-13T05:51:45;19.80;46.10
9425;DHT22;17139;52.140;11.636;2023-07-13T05:54:12;19.80;46.20
9425;DHT22;17139;52.140;11.636;2023-07-13T05:56:40;20.60;46.30
9425;DHT22;17139;52.140;11.636;2023-07-13T05:59:07;20.40;45.70
9425;DHT22;17139;52.140;11.636;2023-07-13T06:01:34;20.20;45.80
9425;DHT22;17139;52.140;11.636;2023-07-13T06:04:01;20.20;45.90
9425;DHT22;17139;52.140;11.636;2023-07-13T06:06:29;20.20;46.00
9425;DHT22;17139;52.140;11.636;2023-07-13T06:08:56;20.40;46.10
9425;DHT22;17139;52.140;11.636;2023-07-13T06:11:26;20.60;46.10
9425;DHT22;17139;52.140;11.636;2023-07-13T06:13:57;20.70;45.90
9425;DHT22;17139;52.140;11.636;2023-07-13T06:16:24;21.60;45.00
9425;DHT22;17139;52.140;11.636;2023-07-13T06:18:51;21.40;45.80
9425;DHT22;17139;52.140;11.636;2023-07-13T06:21:20;21.60;45.20
9425;DHT22;17139;52.140;11.636;2023-07-13T06:23:48;21.60;45.30
9425;DHT22;17139;52.140;11.636;2023-07-13T06:26:16;21.70;45.60
9425;DHT22;17139;52.140;11.636;2023-07-13T06:28:44;21.90;45.70
9425;DHT22;17139;52.140;11.636;2023-07-13T06:31:13;22.10;45.60
9425;DHT22;17139;52.140;11.636;2023-07-13T06:33:40;22.30;45.20
9425;DHT22;17139;52.140;11.636;2023-07-13T06:36:08;22.30;45.00
9425;DHT22;17139;52.140;11.636;2023-07-13T06:38:35;22.20;44.80
9425;DHT22;17139;52.140;11.636;2023-07-13T06:41:03;23.00;43.00
9425;DHT22;17139;52.140;11.636;2023-07-13T06:43:30;22.30;43.60
9425;DHT22;17139;52.140;11.636;2023-07-13T06:45:58;22.50;43.70
9425;DHT22;17139;52.140;11.636;2023-07-13T06:48:26;22.20;44.30
9425;DHT22;17139;52.140;11.636;2023-07-13T06:50:53;22.10;44.50
9425;DHT22;17139;52.140;11.636;2023-07-13T06:53:21;22.00;44.60
9425;DHT22;17139;52.140;11.636;2023-07-13T06:55:48;22.00;44.60
9425;DHT22;17139;52.140;11.636;2023-07-13T06:58:16;21.90;44.50
9425;DHT22;17139;52.140;11.636;2023-07-13T07:00:44;21.90;44.60
9425;DHT22;17139;52.140;11.636;2023-07-13T07:03:11;21.70;44.60
9425;DHT22;17139;52.140;11.636;2023-07-13T07:05:42;22.20;44.20
9425;DHT22;17139;52.140;11.636;2023-07-13T07:08:09;21.90;44.30
9425;DHT22;17139;52.140;11.636;2023-07-13T07:10:36;21.70;44.60
9425;DHT22;17139;52.140;11.636;2023-07-13T07:13:03;21.50;44.70
9425;DHT22;17139;52.140;11.636;2023-07-13T07:15:31;21.40;44.80
9425;DHT22;17139;52.140;11.636;2023-07-13T07:17:58;21.20;44.90
9425;DHT22;17139;52.140;11.636;2023-07-13T07:20:25;21.10;45.00
9425;DHT22;17139;52.140;11.636;2023-07-13T07:22:53;21.00;44.90
9425;DHT22;17139;52.140;11.636;2023-07-13T07:25:20;21.00;45.00
9425;DHT22;17139;52.140;11.636;2023-07-13T07:27:47;21.00;45.10
9425;DHT22;17139;52.140;11.636;2023-07-13T07:30:14;21.00;45.10
9425;DHT22;17139;52.140;11.636;2023-07-13T07:32:41;21.10;45.10
9425;DHT22;17139;52.140;11.636;2023-07-13T07:35:09;21.10;45.00
9425;DHT22;17139;52.140;11.636;2023-07-13T07:37:36;21.60;44.70
9425;DHT22;17139;52.140;11.636;2023-07-13T07:40:05;21.50;44.60
9425;DHT22;17139;52.140;11.636;2023-07-13T07:42:33;21.30;44.70
9425;DHT22;17139;52.140;11.636;2023-07-13T07:45:00;21.30;44.80
9425;DHT22;17139;52.140;11.636;2023-07-13T07:47:28;21.20;44.80
9425;DHT22;17139;52.140;11.636;2023-07-13T07:49:55;21.20;44.70
9425;DHT22;17139;52.140;11.636;2023-07-13T07:52:22;21.20;44.70
9425;DHT22;17139;52.140;11.636;2023-07-13T07:54:50;21.20;44.70
9425;DHT22;17139;52.140;11.636;2023-07-13T07:57:18;21.40;44.30
9425;DHT22;17139;52.140;11.636;2023-07-13T07:59:45;21.40;44.40
9425;DHT22;17139;52.140;11.636;2023-07-13T08:02:14;21.30;44.50
9425;DHT22;17139;52.140;11.636;2023-07-13T08:04:41;22.10;43.20
9425;DHT22;17139;52.140;11.636;2023-07-13T08:07:08;21.80;43.30
9425;DHT22;17139;52.140;11.636;2023-07-13T08:09:35;21.70;43.80
9425;DHT22;17139;52.140;11.636;2023-07-13T08:12:02;21.70;44.10
9425;DHT22;17139;52.140;11.636;2023-07-13T08:14:32;21.70;44.20
9425;DHT22;17139;52.140;11.636;2023-07-13T08:16:59;21.80;44.00
9425;DHT22;17139;52.140;11.636;2023-07-13T08:19:26;21.80;43.90
9425;DHT22;17139;52.140;11.636;2023-07-13T08:21:53;21.80;44.00
9425;DHT22;17139;52.140;11.636;2023-07-13T08:24:23;22.40;42.60
9425;DHT22;17139;52.140;11.636;2023-07-13T08:26:50;22.10;43.10
9425;DHT22;17139;52.140;11.636;2023-07-13T08:29:18;22.00;43.40
9425;DHT22;17139;52.140;11.636;2023-07-13T08:31:46;21.90;43.50
9425;DHT22;17139;52.140;11.636;2023-07-13T08:34:13;21.80;43.60
9425;DHT22;17139;52.140;11.636;2023-07-13T08:36:40;21.80;43.70
9425;DHT22;17139;52.140;11.636;2023-07-13T08:39:07;21.90;43.60
9425;DHT22;17139;52.140;11.636;2023-07-13T08:41:35;21.90;43.30
9425;DHT22;17139;52.140;11.636;2023-07-13T08:44:06;22.00;43.40
9425;DHT22;17139;52.140;11.636;2023-07-13T08:46:37;22.20;43.40
9425;DHT22;17139;52.140;11.636;2023-07-13T08:49:12;22.30;42.90
9425;DHT22;17139;52.140;11.636;2023-07-13T08:51:43;22.50;42.80
9425;DHT22;17139;52.140;11.636;2023-07-13T08:54:19;22.50;42.70
9425;DHT22;17139;52.140;11.636;2023-07-13T08:56:47;23.20;40.70
9425;DHT22;17139;52.140;11.636;2023-07-13T08:59:20;22.80;41.60
9425;DHT22;17139;52.140;11.636;2023-07-13T09:01:58;22.60;42.30
9425;DHT22;17139;52.140;11.636;2023-07-13T09:04:32;22.30;42.60
9425;DHT22;17139;52.140;11.636;2023-07-13T09:07:05;22.20;43.10
9425;DHT22;17139;52.140;11.636;2023-07-13T09:09:47;22.20;43.10
9425;DHT22;17139;52.140;11.636;2023-07-13T09:12:22;22.10;43.00
9425;DHT22;17139;52.140;11.636;2023-07-13T09:14:53;22.10;43.20
9425;DHT22;17139;52.140;11.636;2023-07-13T09:17:26;22.10;43.30
9425;DHT22;17139;52.140;11.636;2023-07-13T09:20:00;22.20;43.20
9425;DHT22;17139;52.140;11.636;2023-07-13T09:22:32;23.10;41.00
9425;DHT22;17139;52.140;11.636;2023-07-13T09:25:05;23.00;41.80
9425;DHT22;17139;52.140;11.636;2023-07-13T09:27:39;22.80;41.90
9425;DHT22;17139;52.140;11.636;2023-07-13T09:30:20;22.70;42.30
9425;DHT22;17139;52.140;11.636;2023-07-13T09:32:52;22.80;42.30
9425;DHT22;17139;52.140;11.636;2023-07-13T09:35:22;22.80;42.00
9425;DHT22;17139;52.140;11.636;2023-07-13T09:37:58;22.80;41.80
9425;DHT22;17139;52.140;11.636;2023-07-13T09:40:30;22.90;41.80
9425;DHT22;17139;52.140;11.636;2023-07-13T09:43:04;22.80;41.60
9425;DHT22;17139;52.140;11.636;2023-07-13T09:45:34;22.80;41.70
9425;DHT22;17139;52.140;11.636;2023-07-13T09:48:05;23.40;39.60
9425;DHT22;17139;52.140;11.636;2023-07-13T09:50:35;23.40;40.90
9425;DHT22;17139;52.140;11.636;2023-07-13T09:53:02;23.30;41.00
9425;DHT22;17139;52.140;11.636;2023-07-13T09:55:31;23.30;41.30
9425;DHT22;17139;52.140;11.636;2023-07-13T09:58:03;23.40;41.30
9425;DHT22;17139;52.140;11.636;2023-07-13T10:00:31;23.50;41.20
9425;DHT22;17139;52.140;11.636;2023-07-13T10:03:01;23.60;41.20
9425;DHT22;17139;52.140;11.636;2023-07-13T10:05:39;23.70;41.10
9425;DHT22;17139;52.140;11.636;2023-07-13T10:08:16;24.20;39.80
9425;DHT22;17139;52.140;11.636;2023-07-13T10:10:44;24.10;40.30
9425;DHT22;17139;52.140;11.636;2023-07-13T10:13:29;24.10;40.70
9425;DHT22;17139;52.140;11.636;2023-07-13T10:15:58;24.10;40.70
9425;DHT22;17139;52.140;11.636;2023-07-13T10:18:25;23.90;40.80
9425;DHT22;17139;52.140;11.636;2023-07-13T10:21:00;23.80;40.70
9425;DHT22;17139;52.140;11.636;2023-07-13T10:23:35;23.70;40.80
9425;DHT22;17139;52.140;11.636;2023-07-13T10:26:03;23.60;41.00
9425;DHT22;17139;52.140;11.636;2023-07-13T10:28:36;23.60;41.00
9425;DHT22;17139;52.140;11.636;2023-07-13T10:31:05;23.60;41.00
9425;DHT22;17139;52.140;11.636;2023-07-13T10:33:36;23.60;41.20
9425;DHT22;17139;52.140;11.636;2023-07-13T10:36:13;24.30;38.80
9425;DHT22;17139;52.140;11.636;2023-07-13T10:38:41;24.10;40.00
9425;DHT22;17139;52.140;11.636;2023-07-13T10:41:13;23.80;40.60
9425;DHT22;17139;52.140;11.636;2023-07-13T10:43:44;23.70;40.90
9425;DHT22;17139;52.140;11.636;2023-07-13T10:46:15;23.60;41.10
9425;DHT22;17139;52.140;11.636;2023-07-13T10:48:46;23.50;41.10
9425;DHT22;17139;52.140;11.636;2023-07-13T10:51:18;23.40;41.30
9425;DHT22;17139;52.140;11.636;2023-07-13T10:53:47;23.30;41.50
9425;DHT22;17139;52.140;11.636;2023-07-13T10:56:28;23.60;40.60
9425;DHT22;17139;52.140;11.636;2023-07-13T10:59:11;24.10;39.20
9425;DHT22;17139;52.140;11.636;2023-07-13T11:01:49;23.70;40.30
9425;DHT22;17139;52.140;11.636;2023-07-13T11:04:18;23.80;39.90
9425;DHT22;17139;52.140;11.636;2023-07-13T11:06:52;23.60;40.60
9425;DHT22;17139;52.140;11.636;2023-07-13T11:09:32;23.50;41.00
9425;DHT22;17139;52.140;11.636;2023-07-13T11:12:00;23.50;40.70
9425;DHT22;17139;52.140;11.636;2023-07-13T11:14:35;23.50;40.90
9425;DHT22;17139;52.140;11.636;2023-07-13T11:17:32;23.50;40.90
9425;DHT22;17139;52.140;11.636;2023-07-13T11:20:19;23.60;41.20
9425;DHT22;17139;52.140;11.636;2023-07-13T11:22:49;24.20;38.50
9425;DHT22;17139;52.140;11.636;2023-07-13T11:25:28;24.00;39.60
9425;DHT22;17139;52.140;11.636;2023-07-13T11:28:23;24.40;38.20
9425;DHT22;17139;52.140;11.636;2023-07-13T11:31:13;24.20;39.30
9425;DHT22;17139;52.140;11.636;2023-07-13T11:34:02;24.10;39.80
9425;DHT22;17139;52.140;11.636;2023-07-13T11:36:35;24.70;38.10
9425;DHT22;17139;52.140;11.636;2023-07-13T11:39:10;24.50;38.70
9425;DHT22;17139;52.140;11.636;2023-07-13T11:41:45;24.40;39.20
9425;DHT22;17139;52.140;11.636;2023-07-13T11:44:14;24.40;39.30
9425;DHT22;17139;52.140;11.636;2023-07-13T11:46:46;24.40;39.60
9425;DHT22;17139;52.140;11.636;2023-07-13T11:49:16;24.50;39.60
9425;DHT22;17139;52.140;11.636;2023-07-13T11:51:44;25.40;37.00
9425;DHT22;17139;52.140;11.636;2023-07-13T11:54:24;25.10;38.10
9425;DHT22;17139;52.140;11.636;2023-07-13T11:56:54;25.00;38.40
9425;DHT22;17139;52.140;11.636;2023-07-13T11:59:21;24.90;39.00
9425;DHT22;17139;52.140;11.636;2023-07-13T12:01:51;24.80;39.20
9425;DHT22;17139;52.140;11.636;2023-07-13T12:04:22;24.70;39.40
9425;DHT22;17139;52.140;11.636;2023-07-13T12:06:57;24.60;39.50
9425;DHT22;17139;52.140;11.636;2023-07-13T12:09:28;25.00;37.40
9425;DHT22;17139;52.140;11.636;2023-07-13T12:11:57;24.60;38.40
9425;DHT22;17139;52.140;11.636;2023-07-13T12:14:25;24.50;38.10
9425;DHT22;17139;52.140;11.636;2023-07-13T12:16:53;24.90;36.90
9425;DHT22;17139;52.140;11.636;2023-07-13T12:19:22;24.40;38.20
9425;DHT22;17139;52.140;11.636;2023-07-13T12:21:52;24.20;38.90
9425;DHT22;17139;52.140;11.636;2023-07-13T12:24:21;24.10;39.20
9425;DHT22;17139;52.140;11.636;2023-07-13T12:26:59;23.90;39.20
9425;DHT22;17139;52.140;11.636;2023-07-13T12:29:28;24.50;37.10
9425;DHT22;17139;52.140;11.636;2023-07-13T12:31:55;24.20;38.40
9425;DHT22;17139;52.140;11.636;2023-07-13T12:34:24;24.60;37.30
9425;DHT22;17139;52.140;11.636;2023-07-13T12:36:53;24.50;38.20
9425;DHT22;17139;52.140;11.636;2023-07-13T12:39:23;24.30;38.70
9425;DHT22;17139;52.140;11.636;2023-07-13T12:41:54;24.10;39.00
9425;DHT22;17139;52.140;11.636;2023-07-13T12:44:40;24.00;39.40
9425;DHT22;17139;52.140;11.636;2023-07-13T12:47:12;23.90;39.40
9425;DHT22;17139;52.140;11.636;2023-07-13T12:49:42;23.70;39.60
9425;DHT22;17139;52.140;11.636;2023-07-13T12:52:14;24.50;37.40
9425;DHT22;17139;52.140;11.636;2023-07-13T12:54:41;24.20;38.60
9425;DHT22;17139;52.140;11.636;2023-07-13T12:57:16;24.60;37.50
9425;DHT22;17139;52.140;11.636;2023-07-13T12:59:44;24.30;38.30
9425;DHT22;17139;52.140;11.636;2023-07-13T13:02:24;24.20;39.00
9425;DHT22;17139;52.140;11.636;2023-07-13T13:04:53;24.20;39.10
9425;DHT22;17139;52.140;11.636;2023-07-13T13:07:21;24.10;39.30
9425;DHT22;17139;52.140;11.636;2023-07-13T13:09:48;24.10;39.40
9425;DHT22;17139;52.140;11.636;2023-07-13T13:12:17;24.10;39.20
9425;DHT22;17139;52.140;11.636;2023-07-13T13:14:44;24.80;37.00
9425;DHT22;17139;52.140;11.636;2023-07-13T13:17:19;25.10;36.00
9425;DHT22;17139;52.140;11.636;2023-07-13T13:19:47;25.00;37.20
9425;DHT22;17139;52.140;11.636;2023-07-13T13:22:13;24.80;37.70
9425;DHT22;17139;52.140;11.636;2023-07-13T13:24:40;24.80;38.20
9425;DHT22;17139;52.140;11.636;2023-07-13T13:27:14;24.70;38.20
9425;DHT22;17139;52.140;11.636;2023-07-13T13:29:44;24.70;38.10
9425;DHT22;17139;52.140;11.636;2023-07-13T13:32:13;24.60;38.20
9425;DHT22;17139;52.140;11.636;2023-07-13T13:34:40;24.60;38.40
9425;DHT22;17139;52.140;11.636;2023-07-13T13:37:19;25.10;36.40
9425;DHT22;17139;52.140;11.636;2023-07-13T13:39:47;24.80;37.20
9425;DHT22;17139;52.140;11.636;2023-07-13T13:42:14;25.00;35.90
9425;DHT22;17139;52.140;11.636;2023-07-13T13:44:41;24.80;37.20
9425;DHT22;17139;52.140;11.636;2023-07-13T13:47:27;24.70;37.70
9425;DHT22;17139;52.140;11.636;2023-07-13T13:49:56;24.70;37.70
9425;DHT22;17139;52.140;11.636;2023-07-13T13:52:23;24.60;38.10
9425;DHT22;17139;52.140;11.636;2023-07-13T13:54:51;24.50;38.10
9425;DHT22;17139;52.140;11.636;2023-07-13T13:57:22;24.40;38.20
9425;DHT22;17139;52.140;11.636;2023-07-13T13:59:50;24.90;36.30
9425;DHT22;17139;52.140;11.636;2023-07-13T14:02:23;24.90;37.40
9425;DHT22;17139;52.140;11.636;2023-07-13T14:04:54;25.00;36.90
9425;DHT22;17139;52.140;11.636;2023-07-13T14:07:21;25.00;37.40
9425;DHT22;17139;52.140;11.636;2023-07-13T14:09:49;24.90;37.50
9425;DHT22;17139;52.140;11.636;2023-07-13T14:12:16;25.00;37.70
9425;DHT22;17139;52.140;11.636;2023-07-13T14:14:44;25.00;37.70
9425;DHT22;17139;52.140;11.636;2023-07-13T14:17:19;25.20;36.30
9425;DHT22;17139;52.140;11.636;2023-07-13T14:19:50;25.10;37.10
9425;DHT22;17139;52.140;11.636;2023-07-13T14:22:23;25.50;35.00
9425;DHT22;17139;52.140;11.636;2023-07-13T14:24:50;25.30;36.50
9425;DHT22;17139;52.140;11.636;2023-07-13T14:27:17;25.40;36.00
9425;DHT22;17139;52.140;11.636;2023-07-13T14:29:44;25.30;36.60
9425;DHT22;17139;52.140;11.636;2023-07-13T14:32:11;25.20;37.10
9425;DHT22;17139;52.140;11.636;2023-07-13T14:34:38;25.30;37.00
9425;DHT22;17139;52.140;11.636;2023-07-13T14:37:12;25.30;37.20
9425;DHT22;17139;52.140;11.636;2023-07-13T14:39:40;25.30;37.10
9425;DHT22;17139;52.140;11.636;2023-07-13T14:42:09;25.30;37.30
9425;DHT22;17139;52.140;11.636;2023-07-13T14:44:38;25.20;37.40
9425;DHT22;17139;52.140;11.636;2023-07-13T14:47:07;25.20;37.20
9425;DHT22;17139;52.140;11.636;2023-07-13T14:49:36;25.20;36.70
9425;DHT22;17139;52.140;11.636;2023-07-13T14:52:12;25.20;37.20
9425;DHT22;17139;52.140;11.636;2023-07-13T14:54:40;25.30;37.30
9425;DHT22;17139;52.140;11.636;2023-07-13T14:57:10;25.30;37.40
9425;DHT22;17139;52.140;11.636;2023-07-13T14:59:37;25.30;37.40
9425;DHT22;17139;52.140;11.636;2023-07-13T15:02:13;25.30;37.60
9425;DHT22;17139;52.140;11.636;2023-07-13T15:04:41;25.30;37.40
9425;DHT22;17139;52.140;11.636;2023-07-13T15:07:12;25.30;37.60
9425;DHT22;17139;52.140;11.636;2023-07-13T15:09:41;25.10;37.50
9425;DHT22;17139;52.140;11.636;2023-07-13T15:12:09;25.00;37.60
9425;DHT22;17139;52.140;11.636;2023-07-13T15:14:36;25.30;35.80
9425;DHT22;17139;52.140;11.636;2023-07-13T15:17:04;25.10;36.60
9425;DHT22;17139;52.140;11.636;2023-07-13T15:19:33;24.80;37.20
9425;DHT22;17139;52.140;11.636;2023-07-13T15:22:01;24.60;37.50
9425;DHT22;17139;52.140;11.636;2023-07-13T15:24:30;24.60;37.60
9425;DHT22;17139;52.140;11.636;2023-07-13T15:26:57;24.50;37.50
9425;DHT22;17139;52.140;11.636;2023-07-13T15:29:24;24.80;36.30
9425;DHT22;17139;52.140;11.636;2023-07-13T15:31:51;24.60;37.20
9425;DHT22;17139;52.140;11.636;2023-07-13T15:34:22;24.50;37.10
9425;DHT22;17139;52.140;11.636;2023-07-13T15:36:51;24.40;37.50
9425;DHT22;17139;52.140;11.636;2023-07-13T15:39:18;24.30;38.00
9425;DHT22;17139;52.140;11.636;2023-07-13T15:41:47;24.40;38.10
9425;DHT22;17139;52.140;11.636;2023-07-13T15:44:23;24.50;38.30